sensor_id;sensor_type;location;lat;lon;timestamp;P1;durP1;ratioP1;P2;durP2;ratioP2
67185;SDS011;54116;53.518;49.398;2022-07-09T00:01:01;22.40;;;12.60;;
67185;SDS011;54116;53.518;49.398;2022-07-09T00:03:28;21.42;;;12.93;;
67185;SDS011;54116;53.518;49.398;2022-07-09T00:05:54;20.63;;;13.73;;
67185;SDS011;54116;53.518;49.398;2022-07-09T00:08:20;18.65;;;11.27;;
67185;SDS011;54116;53.518;49.398;2022-07-09T00:10:46;20.48;;;12.70;;
67185;SDS011;54116;53.518;49.398;2022-07-09T00:13:12;17.00;;;11.63;;
67185;SDS011;54116;53.518;49.398;2022-07-09T00:15:39;19.00;;;11.30;;
67185;SDS011;54116;53.518;49.398;2022-07-09T00:18:05;17.90;;;11.30;;
67185;SDS011;54116;53.518;49.398;2022-07-09T00:20:31;20.90;;;13.55;;
67185;SDS011;54116;53.518;49.398;2022-07-09T00:22:57;19.30;;;12.00;;
67185;SDS011;54116;53.518;49.398;2022-07-09T00:25:23;17.40;;;12.20;;
67185;SDS011;54116;53.518;49.398;2022-07-09T00:27:49;20.38;;;12.90;;
67185;SDS011;54116;53.518;49.398;2022-07-09T00:30:15;19.63;;;11.25;;
67185;SDS011;54116;53.518;49.398;2022-07-09T00:32:41;18.38;;;10.77;;
67185;SDS011;54116;53.518;49.398;2022-07-09T00:35:07;19.40;;;12.20;;
67185;SDS011;54116;53.518;49.398;2022-07-09T00:37:33;19.90;;;13.00;;
67185;SDS011;54116;53.518;49.398;2022-07-09T00:39:59;22.15;;;13.20;;
67185;SDS011;54116;53.518;49.398;2022-07-09T00:42:25;20.48;;;13.10;;
67185;SDS011;54116;53.518;49.398;2022-07-09T00:44:51;21.35;;;12.25;;
67185;SDS011;54116;53.518;49.398;2022-07-09T00:47:17;17.13;;;10.27;;
67185;SDS011;54116;53.518;49.398;2022-07-09T00:49:43;19.15;;;12.32;;
67185;SDS011;54116;53.518;49.398;2022-07-09T00:52:12;21.42;;;11.23;;
67185;SDS011;54116;53.518;49.398;2022-07-09T00:54:39;19.63;;;11.35;;
67185;SDS011;54116;53.518;49.398;2022-07-09T00:57:07;17.17;;;10.68;;
67185;SDS011;54116;53.518;49.398;2022-07-09T00:59:34;19.65;;;11.38;;
67185;SDS011;54116;53.518;49.398;2022-07-09T01:02:04;22.00;;;11.68;;
67185;SDS011;54116;53.518;49.398;2022-07-09T01:04:34;20.02;;;12.40;;
67185;SDS011;54116;53.518;49.398;2022-07-09T01:07:02;16.85;;;10.55;;
67185;SDS011;54116;53.518;49.398;2022-07-09T01:09:28;22.25;;;11.02;;
67185;SDS011;54116;53.518;49.398;2022-07-09T01:11:55;15.93;;;10.82;;
67185;SDS011;54116;53.518;49.398;2022-07-09T01:14:22;19.73;;;10.63;;
67185;SDS011;54116;53.518;49.398;2022-07-09T01:16:56;16.90;;;10.63;;
67185;SDS011;54116;53.518;49.398;2022-07-09T01:19:32;18.13;;;10.45;;
67185;SDS011;54116;53.518;49.398;2022-07-09T01:21:59;16.98;;;10.07;;
67185;SDS011;54116;53.518;49.398;2022-07-09T01:24:25;17.70;;;10.45;;
67185;SDS011;54116;53.518;49.398;2022-07-09T01:26:52;16.25;;;10.73;;
67185;SDS011;54116;53.518;49.398;2022-07-09T01:29:19;18.45;;;9.85;;
67185;SDS011;54116;53.518;49.398;2022-07-09T01:31:46;16.40;;;10.68;;
67185;SDS011;54116;53.518;49.398;2022-07-09T01:34:12;19.88;;;10.48;;
67185;SDS011;54116;53.518;49.398;2022-07-09T01:36:38;15.98;;;10.05;;
67185;SDS011;54116;53.518;49.398;2022-07-09T01:39:04;16.13;;;9.57;;
67185;SDS011;54116;53.518;49.398;2022-07-09T01:41:30;18.58;;;9.88;;
67185;SDS011;54116;53.518;49.398;2022-07-09T01:43:57;16.73;;;10.02;;
67185;SDS011;54116;53.518;49.398;2022-07-09T01:46:23;16.38;;;10.30;;
67185;SDS011;54116;53.518;49.398;2022-07-09T01:48:49;15.75;;;8.45;;
67185;SDS011;54116;53.518;49.398;2022-07-09T01:51:15;14.93;;;10.77;;
67185;SDS011;54116;53.518;49.398;2022-07-09T01:53:42;16.23;;;9.93;;
67185;SDS011;54116;53.518;49.398;2022-07-09T01:56:08;19.98;;;9.35;;
67185;SDS011;54116;53.518;49.398;2022-07-09T01:58:35;16.25;;;9.82;;
67185;SDS011;54116;53.518;49.398;2022-07-09T02:01:02;16.35;;;9.07;;
67185;SDS011;54116;53.518;49.398;2022-07-09T02:03:29;15.38;;;9.40;;
67185;SDS011;54116;53.518;49.398;2022-07-09T02:05:55;15.90;;;9.27;;
67185;SDS011;54116;53.518;49.398;2022-07-09T02:08:22;16.23;;;10.68;;
67185;SDS011;54116;53.518;49.398;2022-07-09T02:10:51;13.88;;;8.88;;
67185;SDS011;54116;53.518;49.398;2022-07-09T02:13:17;14.60;;;10.70;;
67185;SDS011;54116;53.518;49.398;2022-07-09T02:15:44;18.55;;;9.55;;
67185;SDS011;54116;53.518;49.398;2022-07-09T02:18:10;13.43;;;8.55;;
67185;SDS011;54116;53.518;49.398;2022-07-09T02:20:38;16.08;;;9.27;;
67185;SDS011;54116;53.518;49.398;2022-07-09T02:23:04;15.18;;;8.85;;
67185;SDS011;54116;53.518;49.398;2022-07-09T02:25:30;15.45;;;8.48;;
67185;SDS011;54116;53.518;49.398;2022-07-09T02:27:56;13.18;;;9.85;;
67185;SDS011;54116;53.518;49.398;2022-07-09T02:30:22;13.90;;;9.07;;
67185;SDS011;54116;53.518;49.398;2022-07-09T02:32:48;14.60;;;8.70;;
67185;SDS011;54116;53.518;49.398;2022-07-09T02:35:14;12.85;;;7.82;;
67185;SDS011;54116;53.518;49.398;2022-07-09T02:37:40;11.07;;;6.85;;
67185;SDS011;54116;53.518;49.398;2022-07-09T02:40:07;11.77;;;7.60;;
67185;SDS011;54116;53.518;49.398;2022-07-09T02:42:34;13.00;;;7.38;;
67185;SDS011;54116;53.518;49.398;2022-07-09T02:45:02;12.13;;;6.25;;
67185;SDS011;54116;53.518;49.398;2022-07-09T02:47:28;9.20;;;5.57;;
67185;SDS011;54116;53.518;49.398;2022-07-09T02:49:54;10.20;;;6.55;;
67185;SDS011;54116;53.518;49.398;2022-07-09T02:52:21;10.68;;;6.68;;
67185;SDS011;54116;53.518;49.398;2022-07-09T02:54:47;9.07;;;6.22;;
67185;SDS011;54116;53.518;49.398;2022-07-09T02:57:14;12.75;;;5.20;;
67185;SDS011;54116;53.518;49.398;2022-07-09T02:59:40;12.00;;;5.47;;
67185;SDS011;54116;53.518;49.398;2022-07-09T03:02:06;8.98;;;5.30;;
67185;SDS011;54116;53.518;49.398;2022-07-09T03:04:32;10.02;;;5.63;;
67185;SDS011;54116;53.518;49.398;2022-07-09T03:06:58;10.70;;;4.88;;
67185;SDS011;54116;53.518;49.398;2022-07-09T03:09:24;7.05;;;4.28;;
67185;SDS011;54116;53.518;49.398;2022-07-09T03:11:50;8.70;;;4.53;;
67185;SDS011;54116;53.518;49.398;2022-07-09T03:14:16;9.38;;;4.50;;
67185;SDS011;54116;53.518;49.398;2022-07-09T03:16:42;7.65;;;4.07;;
67185;SDS011;54116;53.518;49.398;2022-07-09T03:19:08;6.70;;;3.80;;
67185;SDS011;54116;53.518;49.398;2022-07-09T03:21:34;8.40;;;3.72;;
67185;SDS011;54116;53.518;49.398;2022-07-09T03:24:00;11.82;;;3.78;;
67185;SDS011;54116;53.518;49.398;2022-07-09T03:26:26;7.18;;;3.83;;
67185;SDS011;54116;53.518;49.398;2022-07-09T03:28:52;7.03;;;4.00;;
67185;SDS011;54116;53.518;49.398;2022-07-09T03:31:18;10.35;;;4.43;;
67185;SDS011;54116;53.518;49.398;2022-07-09T03:33:44;5.90;;;3.15;;
67185;SDS011;54116;53.518;49.398;2022-07-09T03:36:10;6.32;;;3.55;;
67185;SDS011;54116;53.518;49.398;2022-07-09T03:38:36;7.30;;;3.38;;
67185;SDS011;54116;53.518;49.398;2022-07-09T03:41:02;6.20;;;2.92;;
67185;SDS011;54116;53.518;49.398;2022-07-09T03:43:29;6.70;;;3.92;;
67185;SDS011;54116;53.518;49.398;2022-07-09T03:45:55;5.57;;;3.50;;
67185;SDS011;54116;53.518;49.398;2022-07-09T03:48:21;8.52;;;3.95;;
67185;SDS011;54116;53.518;49.398;2022-07-09T03:50:47;9.68;;;3.95;;
67185;SDS011;54116;53.518;49.398;2022-07-09T03:53:13;8.80;;;4.03;;
67185;SDS011;54116;53.518;49.398;2022-07-09T03:55:39;8.68;;;3.95;;
67185;SDS011;54116;53.518;49.398;2022-07-09T03:58:05;7.57;;;3.95;;
67185;SDS011;54116;53.518;49.398;2022-07-09T04:00:31;6.65;;;3.80;;
67185;SDS011;54116;53.518;49.398;2022-07-09T04:02:57;9.65;;;3.83;;
67185;SDS011;54116;53.518;49.398;2022-07-09T04:05:23;7.03;;;3.50;;
67185;SDS011;54116;53.518;49.398;2022-07-09T04:07:49;7.30;;;3.60;;
67185;SDS011;54116;53.518;49.398;2022-07-09T04:10:16;5.82;;;3.70;;
67185;SDS011;54116;53.518;49.398;2022-07-09T04:12:42;5.75;;;3.30;;
67185;SDS011;54116;53.518;49.398;2022-07-09T04:15:08;5.40;;;3.30;;
67185;SDS011;54116;53.518;49.398;2022-07-09T04:17:34;5.55;;;3.53;;
67185;SDS011;54116;53.518;49.398;2022-07-09T04:20:00;10.05;;;3.17;;
67185;SDS011;54116;53.518;49.398;2022-07-09T04:22:26;6.50;;;3.88;;
67185;SDS011;54116;53.518;49.398;2022-07-09T04:24:52;4.95;;;2.83;;
67185;SDS011;54116;53.518;49.398;2022-07-09T04:27:18;5.50;;;2.97;;
67185;SDS011;54116;53.518;49.398;2022-07-09T04:29:44;11.35;;;2.92;;
67185;SDS011;54116;53.518;49.398;2022-07-09T04:32:10;6.85;;;3.38;;
67185;SDS011;54116;53.518;49.398;2022-07-09T04:34:38;6.85;;;3.22;;
67185;SDS011;54116;53.518;49.398;2022-07-09T04:37:04;6.85;;;2.78;;
67185;SDS011;54116;53.518;49.398;2022-07-09T04:39:30;8.77;;;3.58;;
67185;SDS011;54116;53.518;49.398;2022-07-09T04:41:56;5.15;;;2.67;;
67185;SDS011;54116;53.518;49.398;2022-07-09T04:44:22;6.13;;;3.70;;
67185;SDS011;54116;53.518;49.398;2022-07-09T04:46:48;12.93;;;3.88;;
67185;SDS011;54116;53.518;49.398;2022-07-09T04:49:14;6.97;;;3.33;;
67185;SDS011;54116;53.518;49.398;2022-07-09T04:51:40;8.52;;;3.95;;
67185;SDS011;54116;53.518;49.398;2022-07-09T04:54:06;6.25;;;3.75;;
67185;SDS011;54116;53.518;49.398;2022-07-09T04:56:32;6.07;;;3.85;;
67185;SDS011;54116;53.518;49.398;2022-07-09T04:58:59;6.40;;;3.63;;
67185;SDS011;54116;53.518;49.398;2022-07-09T05:01:27;5.80;;;3.05;;
67185;SDS011;54116;53.518;49.398;2022-07-09T05:03:55;5.63;;;3.65;;
67185;SDS011;54116;53.518;49.398;2022-07-09T05:06:21;6.38;;;3.60;;
67185;SDS011;54116;53.518;49.398;2022-07-09T05:08:47;6.88;;;3.60;;
67185;SDS011;54116;53.518;49.398;2022-07-09T05:11:13;6.63;;;3.50;;
67185;SDS011;54116;53.518;49.398;2022-07-09T05:13:39;5.25;;;3.58;;
67185;SDS011;54116;53.518;49.398;2022-07-09T05:16:06;7.18;;;3.50;;
67185;SDS011;54116;53.518;49.398;2022-07-09T05:18:32;5.72;;;3.60;;
67185;SDS011;54116;53.518;49.398;2022-07-09T05:20:59;16.83;;;4.38;;
67185;SDS011;54116;53.518;49.398;2022-07-09T05:23:25;6.28;;;3.60;;
67185;SDS011;54116;53.518;49.398;2022-07-09T05:25:51;5.90;;;3.45;;
67185;SDS011;54116;53.518;49.398;2022-07-09T05:28:18;4.88;;;3.45;;
67185;SDS011;54116;53.518;49.398;2022-07-09T05:30:45;6.40;;;3.95;;
67185;SDS011;54116;53.518;49.398;2022-07-09T05:33:11;5.68;;;3.45;;
67185;SDS011;54116;53.518;49.398;2022-07-09T05:35:37;5.40;;;3.67;;
67185;SDS011;54116;53.518;49.398;2022-07-09T05:38:03;5.45;;;3.40;;
67185;SDS011;54116;53.518;49.398;2022-07-09T05:40:29;6.93;;;3.55;;
67185;SDS011;54116;53.518;49.398;2022-07-09T05:42:55;7.40;;;3.53;;
67185;SDS011;54116;53.518;49.398;2022-07-09T05:45:21;7.32;;;4.25;;
67185;SDS011;54116;53.518;49.398;2022-07-09T05:47:47;6.50;;;3.63;;
67185;SDS011;54116;53.518;49.398;2022-07-09T05:50:13;6.30;;;3.60;;
67185;SDS011;54116;53.518;49.398;2022-07-09T05:52:40;10.23;;;3.88;;
67185;SDS011;54116;53.518;49.398;2022-07-09T05:55:06;7.63;;;3.85;;
67185;SDS011;54116;53.518;49.398;2022-07-09T05:57:32;6.10;;;3.70;;
67185;SDS011;54116;53.518;49.398;2022-07-09T05:59:58;6.38;;;3.60;;
67185;SDS011;54116;53.518;49.398;2022-07-09T06:02:24;5.55;;;3.47;;
67185;SDS011;54116;53.518;49.398;2022-07-09T06:04:50;15.13;;;4.22;;
67185;SDS011;54116;53.518;49.398;2022-07-09T06:07:16;9.82;;;3.47;;
67185;SDS011;54116;53.518;49.398;2022-07-09T06:09:42;5.47;;;3.20;;
67185;SDS011;54116;53.518;49.398;2022-07-09T06:12:08;6.97;;;3.28;;
67185;SDS011;54116;53.518;49.398;2022-07-09T06:14:34;7.00;;;3.28;;
67185;SDS011;54116;53.518;49.398;2022-07-09T06:17:00;6.55;;;3.67;;
67185;SDS011;54116;53.518;49.398;2022-07-09T06:19:34;5.88;;;3.38;;
67185;SDS011;54116;53.518;49.398;2022-07-09T06:22:01;5.20;;;3.45;;
67185;SDS011;54116;53.518;49.398;2022-07-09T06:24:27;8.30;;;3.67;;
67185;SDS011;54116;53.518;49.398;2022-07-09T06:26:54;7.28;;;3.40;;
67185;SDS011;54116;53.518;49.398;2022-07-09T06:29:20;7.38;;;3.75;;
67185;SDS011;54116;53.518;49.398;2022-07-09T06:31:46;6.80;;;3.30;;
67185;SDS011;54116;53.518;49.398;2022-07-09T06:34:12;11.13;;;3.70;;
67185;SDS011;54116;53.518;49.398;2022-07-09T06:36:38;6.70;;;3.20;;
67185;SDS011;54116;53.518;49.398;2022-07-09T06:39:05;5.82;;;3.60;;
67185;SDS011;54116;53.518;49.398;2022-07-09T06:41:50;4.68;;;3.22;;
67185;SDS011;54116;53.518;49.398;2022-07-09T06:44:16;5.75;;;3.42;;
67185;SDS011;54116;53.518;49.398;2022-07-09T06:46:42;6.88;;;3.72;;
67185;SDS011;54116;53.518;49.398;2022-07-09T06:49:08;6.20;;;3.97;;
67185;SDS011;54116;53.518;49.398;2022-07-09T06:51:34;8.10;;;3.85;;
67185;SDS011;54116;53.518;49.398;2022-07-09T06:54:00;5.60;;;3.40;;
67185;SDS011;54116;53.518;49.398;2022-07-09T06:56:26;6.15;;;3.65;;
67185;SDS011;54116;53.518;49.398;2022-07-09T06:58:52;5.90;;;3.55;;
67185;SDS011;54116;53.518;49.398;2022-07-09T07:01:18;6.70;;;3.90;;
67185;SDS011;54116;53.518;49.398;2022-07-09T07:03:44;6.55;;;4.10;;
67185;SDS011;54116;53.518;49.398;2022-07-09T07:06:10;5.97;;;3.67;;
67185;SDS011;54116;53.518;49.398;2022-07-09T07:08:36;6.22;;;3.92;;
67185;SDS011;54116;53.518;49.398;2022-07-09T07:11:02;6.38;;;3.92;;
67185;SDS011;54116;53.518;49.398;2022-07-09T07:13:28;7.05;;;3.90;;
67185;SDS011;54116;53.518;49.398;2022-07-09T07:15:54;5.55;;;3.60;;
67185;SDS011;54116;53.518;49.398;2022-07-09T07:18:20;10.30;;;4.30;;
67185;SDS011;54116;53.518;49.398;2022-07-09T07:20:46;9.25;;;3.13;;
67185;SDS011;54116;53.518;49.398;2022-07-09T07:23:14;10.45;;;4.40;;
67185;SDS011;54116;53.518;49.398;2022-07-09T07:25:40;7.57;;;3.72;;
67185;SDS011;54116;53.518;49.398;2022-07-09T07:28:06;6.60;;;3.92;;
67185;SDS011;54116;53.518;49.398;2022-07-09T07:30:32;8.32;;;3.97;;
67185;SDS011;54116;53.518;49.398;2022-07-09T07:33:00;15.15;;;4.43;;
67185;SDS011;54116;53.518;49.398;2022-07-09T07:35:26;6.30;;;3.55;;
67185;SDS011;54116;53.518;49.398;2022-07-09T07:37:52;6.65;;;3.70;;
67185;SDS011;54116;53.518;49.398;2022-07-09T07:40:18;7.20;;;4.45;;
67185;SDS011;54116;53.518;49.398;2022-07-09T07:42:44;6.30;;;3.72;;
67185;SDS011;54116;53.518;49.398;2022-07-09T07:45:10;6.72;;;4.05;;
67185;SDS011;54116;53.518;49.398;2022-07-09T07:47:36;10.15;;;3.80;;
67185;SDS011;54116;53.518;49.398;2022-07-09T07:50:03;7.90;;;4.32;;
67185;SDS011;54116;53.518;49.398;2022-07-09T07:52:29;5.93;;;3.17;;
67185;SDS011;54116;53.518;49.398;2022-07-09T07:54:56;7.47;;;3.53;;
67185;SDS011;54116;53.518;49.398;2022-07-09T07:57:22;6.70;;;3.60;;
67185;SDS011;54116;53.518;49.398;2022-07-09T07:59:48;15.35;;;5.13;;
67185;SDS011;54116;53.518;49.398;2022-07-09T08:02:14;6.70;;;4.40;;
67185;SDS011;54116;53.518;49.398;2022-07-09T08:04:40;7.28;;;4.32;;
67185;SDS011;54116;53.518;49.398;2022-07-09T08:07:06;14.32;;;4.97;;
67185;SDS011;54116;53.518;49.398;2022-07-09T08:09:32;6.93;;;4.30;;
67185;SDS011;54116;53.518;49.398;2022-07-09T08:12:00;9.70;;;5.20;;
67185;SDS011;54116;53.518;49.398;2022-07-09T08:14:26;8.35;;;5.00;;
67185;SDS011;54116;53.518;49.398;2022-07-09T08:16:52;6.57;;;4.65;;
67185;SDS011;54116;53.518;49.398;2022-07-09T08:19:19;9.07;;;5.15;;
67185;SDS011;54116;53.518;49.398;2022-07-09T08:21:45;8.57;;;4.78;;
67185;SDS011;54116;53.518;49.398;2022-07-09T08:24:11;18.63;;;5.35;;
67185;SDS011;54116;53.518;49.398;2022-07-09T08:26:37;7.68;;;4.40;;
67185;SDS011;54116;53.518;49.398;2022-07-09T08:29:03;7.18;;;4.45;;
67185;SDS011;54116;53.518;49.398;2022-07-09T08:31:29;6.75;;;3.95;;
67185;SDS011;54116;53.518;49.398;2022-07-09T08:33:55;10.32;;;4.57;;
67185;SDS011;54116;53.518;49.398;2022-07-09T08:36:22;6.88;;;4.70;;
67185;SDS011;54116;53.518;49.398;2022-07-09T08:38:48;8.38;;;5.25;;
67185;SDS011;54116;53.518;49.398;2022-07-09T08:41:15;7.40;;;4.75;;
67185;SDS011;54116;53.518;49.398;2022-07-09T08:43:48;8.15;;;4.88;;
67185;SDS011;54116;53.518;49.398;2022-07-09T08:46:17;7.93;;;4.97;;
67185;SDS011;54116;53.518;49.398;2022-07-09T08:48:44;7.50;;;4.10;;
67185;SDS011;54116;53.518;49.398;2022-07-09T08:51:10;7.22;;;4.53;;
67185;SDS011;54116;53.518;49.398;2022-07-09T08:53:40;7.05;;;3.80;;
67185;SDS011;54116;53.518;49.398;2022-07-09T08:56:07;8.45;;;4.78;;
67185;SDS011;54116;53.518;49.398;2022-07-09T08:58:34;6.75;;;3.53;;
67185;SDS011;54116;53.518;49.398;2022-07-09T09:01:00;7.97;;;4.32;;
67185;SDS011;54116;53.518;49.398;2022-07-09T09:03:26;7.40;;;4.53;;
67185;SDS011;54116;53.518;49.398;2022-07-09T09:05:59;8.13;;;5.32;;
67185;SDS011;54116;53.518;49.398;2022-07-09T09:08:37;7.28;;;4.15;;
67185;SDS011;54116;53.518;49.398;2022-07-09T09:11:05;8.82;;;4.47;;
67185;SDS011;54116;53.518;49.398;2022-07-09T09:13:42;7.70;;;4.40;;
67185;SDS011;54116;53.518;49.398;2022-07-09T09:16:10;8.68;;;4.90;;
67185;SDS011;54116;53.518;49.398;2022-07-09T09:18:45;10.23;;;5.40;;
67185;SDS011;54116;53.518;49.398;2022-07-09T09:21:13;11.00;;;5.40;;
67185;SDS011;54116;53.518;49.398;2022-07-09T09:26:11;9.50;;;4.88;;
67185;SDS011;54116;53.518;49.398;2022-07-09T09:31:39;16.63;;;5.63;;
67185;SDS011;54116;53.518;49.398;2022-07-09T09:36:34;8.52;;;4.55;;
67185;SDS011;54116;53.518;49.398;2022-07-09T09:39:24;23.92;;;5.82;;
67185;SDS011;54116;53.518;49.398;2022-07-09T09:42:00;11.88;;;5.75;;
67185;SDS011;54116;53.518;49.398;2022-07-09T09:44:31;13.43;;;6.15;;
67185;SDS011;54116;53.518;49.398;2022-07-09T09:47:08;8.63;;;5.15;;
67185;SDS011;54116;53.518;49.398;2022-07-09T09:49:36;13.88;;;5.95;;
67185;SDS011;54116;53.518;49.398;2022-07-09T09:52:04;10.45;;;5.30;;
67185;SDS011;54116;53.518;49.398;2022-07-09T09:54:37;8.43;;;5.30;;
67185;SDS011;54116;53.518;49.398;2022-07-09T09:57:05;11.43;;;5.72;;
67185;SDS011;54116;53.518;49.398;2022-07-09T09:59:33;17.48;;;5.78;;
67185;SDS011;54116;53.518;49.398;2022-07-09T10:02:02;9.98;;;5.28;;
67185;SDS011;54116;53.518;49.398;2022-07-09T10:04:32;10.32;;;6.28;;
67185;SDS011;54116;53.518;49.398;2022-07-09T10:06:58;11.00;;;6.53;;
67185;SDS011;54116;53.518;49.398;2022-07-09T10:09:24;13.00;;;8.48;;
67185;SDS011;54116;53.518;49.398;2022-07-09T10:11:50;12.32;;;8.10;;
67185;SDS011;54116;53.518;49.398;2022-07-09T10:14:17;11.57;;;6.40;;
67185;SDS011;54116;53.518;49.398;2022-07-09T10:22:34;11.02;;;6.05;;
67185;SDS011;54116;53.518;49.398;2022-07-09T10:25:09;10.68;;;6.28;;
67185;SDS011;54116;53.518;49.398;2022-07-09T10:27:43;9.73;;;5.97;;
67185;SDS011;54116;53.518;49.398;2022-07-09T10:30:30;11.35;;;5.20;;
67185;SDS011;54116;53.518;49.398;2022-07-09T10:33:01;15.50;;;6.55;;
67185;SDS011;54116;53.518;49.398;2022-07-09T10:35:27;14.23;;;5.43;;
67185;SDS011;54116;53.518;49.398;2022-07-09T10:37:53;19.80;;;5.40;;
67185;SDS011;54116;53.518;49.398;2022-07-09T10:40:20;12.55;;;5.63;;
67185;SDS011;54116;53.518;49.398;2022-07-09T10:42:58;10.98;;;6.53;;
67185;SDS011;54116;53.518;49.398;2022-07-09T10:45:29;14.27;;;7.20;;
67185;SDS011;54116;53.518;49.398;2022-07-09T10:48:02;13.23;;;6.13;;
67185;SDS011;54116;53.518;49.398;2022-07-09T10:50:30;10.32;;;5.90;;
67185;SDS011;54116;53.518;49.398;2022-07-09T10:52:57;11.35;;;6.57;;
67185;SDS011;54116;53.518;49.398;2022-07-09T10:55:25;13.82;;;6.50;;
67185;SDS011;54116;53.518;49.398;2022-07-09T10:57:53;11.57;;;5.88;;
67185;SDS011;54116;53.518;49.398;2022-07-09T11:00:21;9.48;;;4.95;;
67185;SDS011;54116;53.518;49.398;2022-07-09T11:05:24;10.60;;;5.95;;
67185;SDS011;54116;53.518;49.398;2022-07-09T11:07:55;12.38;;;6.35;;
67185;SDS011;54116;53.518;49.398;2022-07-09T11:10:23;12.32;;;7.43;;
67185;SDS011;54116;53.518;49.398;2022-07-09T11:12:49;13.13;;;7.72;;
67185;SDS011;54116;53.518;49.398;2022-07-09T11:15:18;11.57;;;6.90;;
67185;SDS011;54116;53.518;49.398;2022-07-09T11:17:58;13.93;;;7.35;;
67185;SDS011;54116;53.518;49.398;2022-07-09T11:20:26;14.15;;;7.20;;
67185;SDS011;54116;53.518;49.398;2022-07-09T11:22:52;11.15;;;7.28;;
67185;SDS011;54116;53.518;49.398;2022-07-09T11:25:22;12.00;;;7.15;;
67185;SDS011;54116;53.518;49.398;2022-07-09T11:27:51;13.77;;;7.85;;
67185;SDS011;54116;53.518;49.398;2022-07-09T11:30:17;19.45;;;7.88;;
67185;SDS011;54116;53.518;49.398;2022-07-09T11:32:43;16.00;;;8.48;;
67185;SDS011;54116;53.518;49.398;2022-07-09T11:35:10;16.63;;;9.20;;
67185;SDS011;54116;53.518;49.398;2022-07-09T11:37:37;27.67;;;11.65;;
67185;SDS011;54116;53.518;49.398;2022-07-09T11:40:14;21.90;;;11.27;;
67185;SDS011;54116;53.518;49.398;2022-07-09T11:42:42;34.22;;;13.55;;
67185;SDS011;54116;53.518;49.398;2022-07-09T11:45:08;30.00;;;10.23;;
67185;SDS011;54116;53.518;49.398;2022-07-09T11:47:36;38.92;;;14.32;;
67185;SDS011;54116;53.518;49.398;2022-07-09T11:50:14;26.50;;;10.43;;
67185;SDS011;54116;53.518;49.398;2022-07-09T11:52:47;23.95;;;8.65;;
67185;SDS011;54116;53.518;49.398;2022-07-09T11:55:16;15.50;;;7.20;;
67185;SDS011;54116;53.518;49.398;2022-07-09T11:57:50;24.48;;;9.38;;
67185;SDS011;54116;53.518;49.398;2022-07-09T12:00:39;17.67;;;7.88;;
67185;SDS011;54116;53.518;49.398;2022-07-09T12:03:06;15.90;;;7.47;;
67185;SDS011;54116;53.518;49.398;2022-07-09T12:05:33;36.33;;;9.40;;
67185;SDS011;54116;53.518;49.398;2022-07-09T12:08:03;14.80;;;8.20;;
67185;SDS011;54116;53.518;49.398;2022-07-09T12:10:34;13.35;;;6.20;;
67185;SDS011;54116;53.518;49.398;2022-07-09T12:13:02;11.82;;;6.30;;
67185;SDS011;54116;53.518;49.398;2022-07-09T12:15:29;15.57;;;6.18;;
67185;SDS011;54116;53.518;49.398;2022-07-09T12:17:57;13.20;;;6.63;;
67185;SDS011;54116;53.518;49.398;2022-07-09T12:20:25;18.17;;;7.65;;
67185;SDS011;54116;53.518;49.398;2022-07-09T12:22:53;20.23;;;8.85;;
67185;SDS011;54116;53.518;49.398;2022-07-09T12:25:20;20.30;;;7.78;;
67185;SDS011;54116;53.518;49.398;2022-07-09T12:27:46;20.08;;;8.18;;
67185;SDS011;54116;53.518;49.398;2022-07-09T12:30:15;36.63;;;16.95;;
67185;SDS011;54116;53.518;49.398;2022-07-09T12:32:42;31.42;;;9.70;;
67185;SDS011;54116;53.518;49.398;2022-07-09T12:35:09;32.45;;;12.98;;
67185;SDS011;54116;53.518;49.398;2022-07-09T12:37:39;26.80;;;11.63;;
67185;SDS011;54116;53.518;49.398;2022-07-09T12:40:06;24.83;;;10.57;;
67185;SDS011;54116;53.518;49.398;2022-07-09T12:42:35;28.88;;;10.25;;
67185;SDS011;54116;53.518;49.398;2022-07-09T12:45:01;19.98;;;7.93;;
67185;SDS011;54116;53.518;49.398;2022-07-09T12:47:27;22.23;;;8.52;;
67185;SDS011;54116;53.518;49.398;2022-07-09T12:49:53;20.25;;;7.88;;
67185;SDS011;54116;53.518;49.398;2022-07-09T12:52:19;16.50;;;8.38;;
67185;SDS011;54116;53.518;49.398;2022-07-09T12:54:45;13.93;;;7.78;;
67185;SDS011;54116;53.518;49.398;2022-07-09T12:57:12;14.02;;;8.73;;
67185;SDS011;54116;53.518;49.398;2022-07-09T12:59:38;20.13;;;9.13;;
67185;SDS011;54116;53.518;49.398;2022-07-09T13:02:05;12.10;;;7.97;;
67185;SDS011;54116;53.518;49.398;2022-07-09T13:04:31;13.13;;;9.13;;
67185;SDS011;54116;53.518;49.398;2022-07-09T13:06:57;13.43;;;8.95;;
67185;SDS011;54116;53.518;49.398;2022-07-09T13:09:23;17.25;;;10.45;;
67185;SDS011;54116;53.518;49.398;2022-07-09T13:11:49;18.00;;;11.27;;
67185;SDS011;54116;53.518;49.398;2022-07-09T13:14:16;19.80;;;12.95;;
67185;SDS011;54116;53.518;49.398;2022-07-09T13:16:42;23.70;;;15.25;;
67185;SDS011;54116;53.518;49.398;2022-07-09T13:19:08;21.58;;;15.05;;
67185;SDS011;54116;53.518;49.398;2022-07-09T13:21:34;18.52;;;14.07;;
67185;SDS011;54116;53.518;49.398;2022-07-09T13:24:00;18.38;;;12.52;;
67185;SDS011;54116;53.518;49.398;2022-07-09T13:26:26;19.73;;;13.68;;
67185;SDS011;54116;53.518;49.398;2022-07-09T13:28:52;23.60;;;12.23;;
67185;SDS011;54116;53.518;49.398;2022-07-09T13:31:19;16.00;;;10.50;;
67185;SDS011;54116;53.518;49.398;2022-07-09T13:33:47;18.73;;;12.20;;
67185;SDS011;54116;53.518;49.398;2022-07-09T13:36:13;15.77;;;9.35;;
67185;SDS011;54116;53.518;49.398;2022-07-09T13:38:39;13.45;;;9.05;;
67185;SDS011;54116;53.518;49.398;2022-07-09T13:41:05;17.30;;;10.07;;
67185;SDS011;54116;53.518;49.398;2022-07-09T13:43:31;12.50;;;7.88;;
67185;SDS011;54116;53.518;49.398;2022-07-09T13:45:58;14.82;;;9.27;;
67185;SDS011;54116;53.518;49.398;2022-07-09T13:48:25;15.30;;;8.85;;
67185;SDS011;54116;53.518;49.398;2022-07-09T13:50:52;13.48;;;8.48;;
67185;SDS011;54116;53.518;49.398;2022-07-09T13:53:18;12.18;;;7.22;;
67185;SDS011;54116;53.518;49.398;2022-07-09T13:55:45;15.55;;;8.57;;
67185;SDS011;54116;53.518;49.398;2022-07-09T13:58:12;15.90;;;8.27;;
67185;SDS011;54116;53.518;49.398;2022-07-09T14:00:38;11.27;;;7.85;;
67185;SDS011;54116;53.518;49.398;2022-07-09T14:03:04;13.00;;;7.45;;
67185;SDS011;54116;53.518;49.398;2022-07-09T14:05:31;12.93;;;8.88;;
67185;SDS011;54116;53.518;49.398;2022-07-09T14:07:57;13.90;;;9.15;;
67185;SDS011;54116;53.518;49.398;2022-07-09T14:10:26;13.13;;;8.50;;
67185;SDS011;54116;53.518;49.398;2022-07-09T14:12:52;11.80;;;8.27;;
67185;SDS011;54116;53.518;49.398;2022-07-09T14:15:18;14.88;;;7.78;;
67185;SDS011;54116;53.518;49.398;2022-07-09T14:17:44;14.95;;;9.23;;
67185;SDS011;54116;53.518;49.398;2022-07-09T14:20:10;16.10;;;9.05;;
67185;SDS011;54116;53.518;49.398;2022-07-09T14:22:37;18.02;;;9.32;;
67185;SDS011;54116;53.518;49.398;2022-07-09T14:25:03;16.73;;;9.20;;
67185;SDS011;54116;53.518;49.398;2022-07-09T14:27:30;12.20;;;9.15;;
67185;SDS011;54116;53.518;49.398;2022-07-09T14:29:56;18.77;;;8.52;;
67185;SDS011;54116;53.518;49.398;2022-07-09T14:32:22;14.10;;;8.98;;
67185;SDS011;54116;53.518;49.398;2022-07-09T14:34:49;13.50;;;7.75;;
67185;SDS011;54116;53.518;49.398;2022-07-09T14:37:15;13.73;;;7.15;;
67185;SDS011;54116;53.518;49.398;2022-07-09T14:39:41;16.27;;;8.65;;